Terminal Aerodrome Forecast
Issued by NWS

Home | Current Version | Previous Version | Text Only | Print | Product List | Glossary On
Versions: 1 2 3 4 5 6 7 8 9 10 11 12 13 14 15 16 17 18
000
FTUS41 KCAR 030709 AAC
TAFHUL
TAF AMD
KHUL 030709Z 0307/0406 02005KT P6SM -RA OVC003
     FM030900 02005KT P6SM OVC010
     FM031400 00000KT P6SM OVC025
     FM031800 00000KT P6SM OVC035
     FM040400 VRB03KT P6SM BKN015=

USA.gov is the U.S. government's official web portal to all federal, state and local government web resources and services.